Wetterdaten: Woche 08.04.19 - 14.04.19 (KW15)
Datum Zeit Temp. A. Pool Temp. Temp. 5cm Feuchte A. Luftdruck Regen Wind Richtung Sonnenschein ET UV Solar Taupunkt Windchill Windben Empfang
08.04.2019 00:00 7,5 C 10,6 C 5,1 C 86 % 1004,5 hPa 0,0 l/m 5,3 km/h (1 Bft) SW 0,00 h 0,000 mm 0,0 UV-I 0 W/m 5,2 C 7,4 C 7,0 km/h (2 Bft) 98,40 %
08.04.2019 01:00 7,8 C 10,6 C 6,6 C 85 % 1004,8 hPa 0,0 l/m 4,3 km/h (1 Bft) S-SW 0,00 h 0,000 mm 0,0 UV-I 0 W/m 5,5 C 7,8 C 5,7 km/h (1 Bft) 97,31 %
08.04.2019 02:00 7,7 C 10,6 C 7,1 C 86 % 1004,9 hPa 0,0 l/m 4,9 km/h (1 Bft) S-SW 0,00 h 0,000 mm 0,0 UV-I 0 W/m 5,6 C 7,7 C 6,5 km/h (2 Bft) 97,73 %
08.04.2019 03:00 7,5 C 10,6 C 6,8 C 87 % 1005,1 hPa 0,0 l/m 5,4 km/h (1 Bft) S-SW 0,00 h 0,000 mm 0,0 UV-I 0 W/m 5,6 C 7,5 C 7,2 km/h (2 Bft) 95,55 %
08.04.2019 04:00 7,8 C 10,6 C 7,2 C 88 % 1005,5 hPa 0,0 l/m 5,5 km/h (1 Bft) S-SW 0,00 h 0,000 mm 0,0 UV-I 0 W/m 5,8 C 7,6 C 7,6 km/h (2 Bft) 99,13 %
08.04.2019 05:00 8,2 C 10,6 C 7,8 C 87 % 1006,1 hPa 0,0 l/m 6,8 km/h (2 Bft) SW 0,00 h 0,000 mm 0,0 UV-I 0 W/m 6,2 C 7,6 C 10,2 km/h (2 Bft) 97,26 %
08.04.2019 06:00 8,4 C 10,6 C 8,0 C 87 % 1006,6 hPa 0,0 l/m 5,8 km/h (2 Bft) W-SW 0,00 h 0,000 mm 0,0 UV-I 7 W/m 6,4 C 8,2 C 9,4 km/h (2 Bft) 97,86 %
08.04.2019 07:00 8,9 C 10,6 C 8,9 C 86 % 1007,2 hPa 0,0 l/m 6,5 km/h (2 Bft) W 0,00 h 0,000 mm 0,0 UV-I 26 W/m 6,6 C 8,4 C 10,4 km/h (2 Bft) 95,47 %
08.04.2019 08:00 9,6 C 10,6 C 10,4 C 84 % 1007,5 hPa 0,0 l/m 7,4 km/h (2 Bft) SW 0,00 h 0,025 mm 0,0 UV-I 79 W/m 7,0 C 8,7 C 11,4 km/h (2 Bft) 99,29 %
08.04.2019 09:00 10,5 C 10,6 C 12,3 C 83 % 1007,5 hPa 0,0 l/m 9,5 km/h (2 Bft) W 0,00 h 0,051 mm 0,5 UV-I 148 W/m 7,7 C 8,5 C 14,9 km/h (3 Bft) 97,51 %
08.04.2019 10:00 10,8 C 10,6 C 12,4 C 83 % 1007,9 hPa 0,0 l/m 7,7 km/h (2 Bft) W-SW 0,00 h 0,076 mm 0,5 UV-I 112 W/m 7,9 C 9,7 C 12,5 km/h (3 Bft) 98,34 %
08.04.2019 11:00 10,9 C 10,6 C 13,4 C 84 % 1008,0 hPa 0,0 l/m 15,3 km/h (3 Bft) W-SW 0,00 h 0,077 mm 0,9 UV-I 194 W/m 8,2 C 6,1 C 22,8 km/h (4 Bft) 95,81 %
08.04.2019 12:00 10,3 C 10,6 C 11,8 C 84 % 1008,3 hPa 0,0 l/m 14,9 km/h (3 Bft) SW 0,00 h 0,127 mm 0,7 UV-I 133 W/m 7,6 C 5,5 C 22,8 km/h (4 Bft) 97,88 %
08.04.2019 13:00 10,7 C 10,6 C 14,3 C 82 % 1008,3 hPa 0,0 l/m 16,4 km/h (3 Bft) W-SW 0,05 h 0,076 mm 1,4 UV-I 289 W/m 7,9 C 5,5 C 24,8 km/h (4 Bft) 97,32 %
08.04.2019 14:00 11,9 C 10,6 C 17,4 C 79 % 1008,2 hPa 0,0 l/m 15,7 km/h (3 Bft) SW 0,60 h 0,178 mm 1,8 UV-I 395 W/m 8,3 C 7,2 C 24,3 km/h (4 Bft) 98,21 %
08.04.2019 15:00 11,9 C 10,6 C 16,2 C 78 % 1008,0 hPa 0,0 l/m 14,8 km/h (3 Bft) SW 0,13 h 0,228 mm 1,4 UV-I 318 W/m 8,2 C 7,5 C 23,3 km/h (4 Bft) 97,26 %
08.04.2019 16:00 12,2 C 10,6 C 16,1 C 77 % 1007,9 hPa 0,0 l/m 16,1 km/h (3 Bft) W-SW 0,57 h 0,178 mm 0,9 UV-I 299 W/m 8,2 C 7,5 C 24,1 km/h (4 Bft) 95,88 %
08.04.2019 17:00 12,2 C 10,6 C 14,6 C 76 % 1007,8 hPa 0,0 l/m 14,9 km/h (3 Bft) SW 0,97 h 0,178 mm 0,6 UV-I 248 W/m 8,1 C 7,9 C 23,6 km/h (4 Bft) 97,79 %
08.04.2019 18:00 11,6 C 10,6 C 12,0 C 77 % 1008,1 hPa 0,0 l/m 14,7 km/h (3 Bft) W-SW 1,00 h 0,152 mm 0,0 UV-I 128 W/m 7,7 C 7,2 C 22,7 km/h (4 Bft) 98,27 %
08.04.2019 19:00 10,4 C 10,6 C 9,7 C 81 % 1008,3 hPa 0,0 l/m 12,7 km/h (3 Bft) W-SW 0,57 h 0,102 mm 0,0 UV-I 27 W/m 7,3 C 6,7 C 19,2 km/h (3 Bft) 98,41 %
08.04.2019 20:00 10,1 C 7,9 C 9,4 C 83 % 1009,0 hPa 0,0 l/m 9,9 km/h (2 Bft) W-SW 0,00 h 0,051 mm 0,0 UV-I 0 W/m 7,3 C 7,8 C 14,6 km/h (3 Bft) 96,42 %
08.04.2019 21:00 10,1 C 0,0 C 9,5 C 83 % 1009,3 hPa 0,0 l/m 9,5 km/h (2 Bft) W-SW 0,00 h 0,025 mm 0,0 UV-I 0 W/m 7,3 C 8,1 C 14,3 km/h (3 Bft) 97,00 %
08.04.2019 22:00 10,0 C 0,0 C 9,4 C 82 % 1009,3 hPa 0,0 l/m 9,9 km/h (2 Bft) W-SW 0,00 h 0,025 mm 0,0 UV-I 0 W/m 7,1 C 7,7 C 14,9 km/h (3 Bft) 99,15 %
08.04.2019 23:00 9,7 C 0,0 C 8,8 C 83 % 1009,1 hPa 0,0 l/m 9,9 km/h (2 Bft) W 0,00 h 0,026 mm 0,0 UV-I 0 W/m 6,9 C 7,4 C 15,0 km/h (3 Bft) 98,24 %
09.04.2019 00:00 9,6 C 0,0 C 9,2 C 83 % 1009,2 hPa 0,0 l/m 7,1 km/h (2 Bft) W 0,00 h 0,000 mm 0,0 UV-I 0 W/m 6,9 C 9,0 C 11,2 km/h (2 Bft) 96,62 %
09.04.2019 01:00 9,4 C 0,0 C 8,9 C 84 % 1009,0 hPa 0,0 l/m 6,4 km/h (2 Bft) W-SW 0,00 h 0,025 mm 0,0 UV-I 0 W/m 6,9 C 9,0 C 9,5 km/h (2 Bft) 97,03 %
09.04.2019 02:00 9,3 C 0,0 C 8,9 C 85 % 1008,8 hPa 0,0 l/m 5,8 km/h (2 Bft) W-SW 0,00 h 0,026 mm 0,0 UV-I 0 W/m 6,9 C 9,1 C 9,1 km/h (2 Bft) 98,60 %
09.04.2019 03:00 9,2 C 0,0 C 8,5 C 86 % 1008,7 hPa 0,0 l/m 4,7 km/h (1 Bft) W 0,00 h 0,000 mm 0,0 UV-I 0 W/m 6,9 C 9,2 C 7,1 km/h (2 Bft) 97,20 %
09.04.2019 04:00 9,1 C 0,0 C 8,1 C 86 % 1008,6 hPa 0,0 l/m 4,7 km/h (1 Bft) W-SW 0,00 h 0,000 mm 0,0 UV-I 0 W/m 6,8 C 9,0 C 7,1 km/h (2 Bft) 96,51 %
09.04.2019 05:00 8,6 C 0,0 C 7,6 C 88 % 1008,5 hPa 0,0 l/m 6,2 km/h (2 Bft) SW 0,00 h 0,000 mm 0,0 UV-I 0 W/m 6,7 C 8,4 C 9,2 km/h (2 Bft) 97,25 %
09.04.2019 06:00 8,1 C 0,0 C 6,7 C 89 % 1008,6 hPa 0,0 l/m 4,0 km/h (1 Bft) SW 0,00 h 0,000 mm 0,0 UV-I 12 W/m 6,3 C 8,1 C 5,6 km/h (1 Bft) 99,15 %
09.04.2019 07:00 8,5 C 0,0 C 9,1 C 88 % 1008,8 hPa 0,0 l/m 5,0 km/h (1 Bft) SW 0,00 h 0,000 mm 0,0 UV-I 48 W/m 6,6 C 8,4 C 7,4 km/h (2 Bft) 97,19 %
09.04.2019 08:00 9,9 C 0,0 C 12,3 C 84 % 1008,9 hPa 0,0 l/m 4,8 km/h (1 Bft) SW 0,00 h 0,025 mm 0,4 UV-I 151 W/m 7,4 C 9,9 C 7,6 km/h (2 Bft) 97,09 %
09.04.2019 09:00 11,4 C 0,0 C 16,3 C 78 % 1008,9 hPa 0,0 l/m 4,3 km/h (1 Bft) W 0,80 h 0,076 mm 0,7 UV-I 297 W/m 7,7 C 11,3 C 7,2 km/h (2 Bft) 96,46 %
09.04.2019 10:00 12,6 C 0,0 C 20,8 C 75 % 1008,7 hPa 0,0 l/m 4,2 km/h (1 Bft) W-SW 0,93 h 0,153 mm 1,4 UV-I 447 W/m 8,2 C 12,5 C 7,4 km/h (2 Bft) 98,43 %
09.04.2019 11:00 13,7 C 0,0 C 24,1 C 72 % 1008,4 hPa 0,0 l/m 4,2 km/h (1 Bft) SW 0,87 h 0,228 mm 2,1 UV-I 533 W/m 8,7 C 13,6 C 7,0 km/h (2 Bft) 97,46 %
09.04.2019 12:00 15,1 C 0,0 C 27,5 C 68 % 1007,8 hPa 0,0 l/m 4,8 km/h (1 Bft) N 0,83 h 0,280 mm 2,8 UV-I 680 W/m 9,2 C 15,0 C 8,3 km/h (2 Bft) 97,74 %
09.04.2019 13:00 16,2 C 0,0 C 29,0 C 63 % 1007,2 hPa 0,0 l/m 4,4 km/h (1 Bft) N-NO 0,80 h 0,381 mm 2,8 UV-I 638 W/m 9,0 C 16,1 C 8,0 km/h (2 Bft) 99,00 %
09.04.2019 14:00 16,8 C 0,0 C 26,8 C 58 % 1006,8 hPa 0,0 l/m 4,7 km/h (1 Bft) NO 0,70 h 0,381 mm 2,4 UV-I 576 W/m 8,6 C 16,6 C 8,4 km/h (2 Bft) 96,41 %
09.04.2019 15:00 17,0 C 0,0 C 22,6 C 55 % 1006,2 hPa 0,0 l/m 3,3 km/h (1 Bft) SO 0,55 h 0,330 mm 1,6 UV-I 411 W/m 7,9 C 17,0 C 5,9 km/h (2 Bft) 96,20 %
09.04.2019 16:00 17,8 C 0,0 C 26,2 C 50 % 1005,7 hPa 0,0 l/m 6,6 km/h (2 Bft) O-NO 1,00 h 0,254 mm 1,1 UV-I 437 W/m 7,1 C 17,2 C 11,0 km/h (2 Bft) 97,23 %
09.04.2019 17:00 17,4 C 0,0 C 20,8 C 50 % 1005,5 hPa 0,0 l/m 7,0 km/h (2 Bft) O-NO 0,95 h 0,279 mm 0,6 UV-I 247 W/m 6,8 C 16,8 C 10,8 km/h (2 Bft) 98,63 %
09.04.2019 18:00 16,8 C 0,0 C 16,0 C 52 % 1005,3 hPa 0,0 l/m 4,7 km/h (1 Bft) O-SO 1,00 h 0,178 mm 0,0 UV-I 128 W/m 6,9 C 16,8 C 7,4 km/h (2 Bft) 96,89 %
09.04.2019 19:00 15,2 C 0,0 C 11,3 C 57 % 1005,5 hPa 0,0 l/m 3,5 km/h (1 Bft) O 0,23 h 0,102 mm 0,0 UV-I 23 W/m 6,8 C 15,2 C 5,4 km/h (1 Bft) 99,20 %
09.04.2019 20:00 13,6 C 0,0 C 9,1 C 63 % 1005,8 hPa 0,0 l/m 2,6 km/h (1 Bft) O-SO 0,00 h 0,025 mm 0,0 UV-I 0 W/m 6,6 C 13,6 C 4,1 km/h (1 Bft) 95,19 %
09.04.2019 21:00 12,3 C 0,0 C 7,0 C 67 % 1006,0 hPa 0,0 l/m 3,0 km/h (1 Bft) O-SO 0,00 h 0,026 mm 0,0 UV-I 0 W/m 6,3 C 12,3 C 4,4 km/h (1 Bft) 98,36 %
09.04.2019 22:00 11,9 C 0,0 C 6,0 C 67 % 1005,9 hPa 0,0 l/m 4,0 km/h (1 Bft) O 0,00 h 0,025 mm 0,0 UV-I 0 W/m 6,0 C 11,9 C 5,4 km/h (1 Bft) 96,94 %
09.04.2019 23:00 10,2 C 0,0 C 4,8 C 73 % 1006,0 hPa 0,0 l/m 3,5 km/h (1 Bft) O 0,00 h 0,025 mm 0,0 UV-I 0 W/m 5,6 C 10,2 C 5,1 km/h (1 Bft) 98,73 %
10.04.2019 00:00 9,2 C 0,0 C 6,1 C 75 % 1006,4 hPa 0,0 l/m 7,6 km/h (2 Bft) O-NO 0,00 h 0,000 mm 0,0 UV-I 0 W/m 5,1 C 8,2 C 11,4 km/h (2 Bft) 95,27 %
10.04.2019 01:00 9,3 C 0,0 C 7,3 C 76 % 1006,5 hPa 0,0 l/m 9,2 km/h (2 Bft) O-NO 0,00 h 0,025 mm 0,0 UV-I 0 W/m 5,3 C 7,3 C 14,8 km/h (3 Bft) 97,37 %
10.04.2019 02:00 9,6 C 0,0 C 8,3 C 75 % 1006,5 hPa 0,0 l/m 12,9 km/h (3 Bft) O-NO 0,00 h 0,026 mm 0,0 UV-I 0 W/m 5,4 C 5,7 C 19,1 km/h (3 Bft) 98,30 %
10.04.2019 03:00 9,5 C 0,0 C 8,5 C 75 % 1006,6 hPa 0,0 l/m 11,7 km/h (2 Bft) O-NO 0,00 h 0,025 mm 0,0 UV-I 0 W/m 5,3 C 6,1 C 18,0 km/h (3 Bft) 98,36 %
10.04.2019 04:00 9,2 C 0,0 C 8,3 C 76 % 1006,5 hPa 0,0 l/m 13,4 km/h (3 Bft) O-NO 0,00 h 0,026 mm 0,0 UV-I 0 W/m 5,1 C 4,9 C 19,1 km/h (3 Bft) 95,23 %
10.04.2019 05:00 8,8 C 0,0 C 8,3 C 76 % 1006,4 hPa 0,0 l/m 15,2 km/h (3 Bft) O-NO 0,00 h 0,025 mm 0,0 UV-I 0 W/m 4,9 C 3,7 C 20,3 km/h (4 Bft) 96,43 %
10.04.2019 06:00 8,5 C 0,0 C 7,9 C 77 % 1006,7 hPa 0,0 l/m 10,6 km/h (2 Bft) O-NO 0,00 h 0,051 mm 0,0 UV-I 14 W/m 4,8 C 5,7 C 15,8 km/h (3 Bft) 97,88 %
10.04.2019 07:00 8,2 C 0,0 C 8,3 C 79 % 1007,3 hPa 0,0 l/m 9,5 km/h (2 Bft) O-NO 0,00 h 0,025 mm 0,0 UV-I 47 W/m 4,8 C 6,1 C 14,2 km/h (3 Bft) 98,29 %
10.04.2019 08:00 8,3 C 0,0 C 9,3 C 79 % 1007,5 hPa 0,0 l/m 11,7 km/h (2 Bft) O-NO 0,00 h 0,051 mm 0,0 UV-I 85 W/m 4,9 C 4,9 C 17,0 km/h (3 Bft) 95,96 %
10.04.2019 09:00 8,5 C 0,0 C 10,6 C 77 % 1007,7 hPa 0,0 l/m 13,4 km/h (3 Bft) O-NO 0,00 h 0,051 mm 0,6 UV-I 153 W/m 4,7 C 4,2 C 19,8 km/h (4 Bft) 96,55 %
10.04.2019 10:00 9,1 C 0,0 C 13,0 C 75 % 1007,9 hPa 0,0 l/m 15,4 km/h (3 Bft) O-NO 0,00 h 0,101 mm 1,0 UV-I 259 W/m 4,8 C 3,9 C 21,5 km/h (4 Bft) 97,81 %
10.04.2019 11:00 9,5 C 0,0 C 13,8 C 73 % 1008,0 hPa 0,0 l/m 14,1 km/h (3 Bft) O-NO 0,00 h 0,153 mm 1,1 UV-I 277 W/m 5,0 C 5,0 C 19,6 km/h (3 Bft) 98,52 %
10.04.2019 12:00 10,2 C 0,0 C 14,4 C 73 % 1008,0 hPa 0,0 l/m 12,8 km/h (3 Bft) O-NO 0,00 h 0,178 mm 1,1 UV-I 281 W/m 5,5 C 6,4 C 18,0 km/h (3 Bft) 97,22 %
10.04.2019 13:00 10,4 C 0,0 C 14,4 C 74 % 1008,1 hPa 0,0 l/m 11,5 km/h (2 Bft) O-NO 0,00 h 0,177 mm 1,3 UV-I 309 W/m 6,0 C 7,2 C 17,3 km/h (3 Bft) 95,93 %
10.04.2019 14:00 10,4 C 0,0 C 13,0 C 76 % 1008,2 hPa 0,0 l/m 12,3 km/h (3 Bft) O-NO 0,00 h 0,178 mm 0,9 UV-I 212 W/m 6,4 C 6,9 C 17,3 km/h (3 Bft) 96,79 %
10.04.2019 15:00 10,2 C 0,0 C 12,3 C 79 % 1008,3 hPa 0,0 l/m 12,7 km/h (3 Bft) O 0,00 h 0,127 mm 0,8 UV-I 209 W/m 6,8 C 6,5 C 18,4 km/h (3 Bft) 98,32 %
10.04.2019 16:00 10,0 C 0,0 C 12,2 C 83 % 1008,5 hPa 0,0 l/m 12,1 km/h (2 Bft) O 0,00 h 0,127 mm 0,6 UV-I 184 W/m 7,3 C 6,6 C 17,5 km/h (3 Bft) 97,08 %
10.04.2019 17:00 9,1 C 0,0 C 9,8 C 88 % 1008,9 hPa 0,0 l/m 9,2 km/h (2 Bft) O 0,00 h 0,102 mm 0,0 UV-I 59 W/m 7,2 C 7,1 C 14,1 km/h (3 Bft) 97,06 %
10.04.2019 18:00 8,7 C 0,0 C 8,5 C 89 % 1009,2 hPa 0,0 l/m 7,2 km/h (2 Bft) O-SO 0,00 h 0,051 mm 0,0 UV-I 18 W/m 7,0 C 7,9 C 11,8 km/h (2 Bft) 95,96 %
10.04.2019 19:00 8,4 C 0,0 C 8,2 C 91 % 1009,5 hPa 0,2 l/m 5,3 km/h (1 Bft) O-SO 0,00 h 0,025 mm 0,0 UV-I 8 W/m 7,1 C 8,3 C 8,7 km/h (2 Bft) 98,72 %
10.04.2019 20:00 8,2 C 0,0 C 7,8 C 93 % 1010,1 hPa 0,0 l/m 3,9 km/h (1 Bft) SO 0,00 h 0,000 mm 0,0 UV-I 0 W/m 7,2 C 8,2 C 6,8 km/h (2 Bft) 96,84 %
10.04.2019 21:00 8,0 C 0,0 C 7,8 C 94 % 1010,7 hPa 0,2 l/m 5,3 km/h (1 Bft) NO 0,00 h 0,000 mm 0,0 UV-I 0 W/m 7,1 C 8,0 C 7,2 km/h (2 Bft) 96,92 %
10.04.2019 22:00 7,9 C 0,0 C 7,8 C 96 % 1011,0 hPa 0,2 l/m 5,9 km/h (2 Bft) NO 0,00 h 0,000 mm 0,0 UV-I 0 W/m 7,2 C 7,8 C 7,9 km/h (2 Bft) 96,15 %
10.04.2019 23:00 7,7 C 0,0 C 7,8 C 96 % 1011,5 hPa 0,2 l/m 5,8 km/h (2 Bft) NO 0,00 h 0,000 mm 0,0 UV-I 0 W/m 7,1 C 7,6 C 8,5 km/h (2 Bft) 98,45 %
11.04.2019 00:00 7,6 C 0,0 C 7,7 C 96 % 1011,5 hPa 0,2 l/m 5,7 km/h (1 Bft) NO 0,00 h 0,000 mm 0,0 UV-I 0 W/m 7,0 C 7,5 C 7,7 km/h (2 Bft) 96,99 %
11.04.2019 01:00 7,4 C 0,0 C 7,4 C 96 % 1011,6 hPa 0,0 l/m 5,6 km/h (1 Bft) O-NO 0,00 h 0,000 mm 0,0 UV-I 0 W/m 6,8 C 7,4 C 8,1 km/h (2 Bft) 97,39 %
11.04.2019 02:00 7,4 C 0,0 C 7,2 C 96 % 1011,8 hPa 0,2 l/m 6,4 km/h (2 Bft) NO 0,00 h 0,000 mm 0,0 UV-I 0 W/m 6,8 C 6,9 C 9,3 km/h (2 Bft) 95,98 %
11.04.2019 03:00 7,2 C 0,0 C 6,9 C 95 % 1012,2 hPa 0,2 l/m 10,1 km/h (2 Bft) NO 0,00 h 0,000 mm 0,0 UV-I 0 W/m 6,5 C 4,5 C 15,3 km/h (3 Bft) 98,23 %
11.04.2019 04:00 6,9 C 0,0 C 6,6 C 93 % 1012,5 hPa 0,0 l/m 10,0 km/h (2 Bft) O-NO 0,00 h 0,000 mm 0,0 UV-I 0 W/m 5,9 C 4,2 C 15,3 km/h (3 Bft) 97,46 %
11.04.2019 05:00 6,6 C 0,0 C 6,1 C 90 % 1013,0 hPa 0,0 l/m 8,2 km/h (2 Bft) NO 0,00 h 0,000 mm 0,0 UV-I 0 W/m 5,1 C 5,1 C 12,1 km/h (2 Bft) 97,34 %
11.04.2019 06:00 6,1 C 0,0 C 5,7 C 90 % 1013,5 hPa 0,0 l/m 6,3 km/h (2 Bft) O-NO 0,00 h 0,000 mm 0,0 UV-I 12 W/m 4,6 C 5,7 C 9,4 km/h (2 Bft) 96,45 %
11.04.2019 07:00 5,8 C 0,0 C 5,7 C 87 % 1013,9 hPa 0,0 l/m 10,8 km/h (2 Bft) NO 0,00 h 0,000 mm 0,0 UV-I 49 W/m 3,8 C 2,5 C 16,0 km/h (3 Bft) 97,79 %
11.04.2019 08:00 6,0 C 0,0 C 7,0 C 84 % 1014,4 hPa 0,0 l/m 9,7 km/h (2 Bft) O-NO 0,00 h 0,025 mm 0,0 UV-I 109 W/m 3,6 C 3,5 C 15,0 km/h (3 Bft) 97,74 %
11.04.2019 09:00 6,5 C 0,0 C 7,8 C 82 % 1014,8 hPa 0,0 l/m 11,6 km/h (2 Bft) NO 0,00 h 0,051 mm 0,6 UV-I 164 W/m 3,6 C 2,7 C 16,6 km/h (3 Bft) 97,52 %
11.04.2019 10:00 7,1 C 0,0 C 10,3 C 79 % 1015,1 hPa 0,0 l/m 11,3 km/h (2 Bft) NO 0,00 h 0,076 mm 1,0 UV-I 244 W/m 3,7 C 3,7 C 16,4 km/h (3 Bft) 95,19 %
11.04.2019 11:00 7,7 C 0,0 C 12,8 C 76 % 1015,4 hPa 0,0 l/m 7,6 km/h (2 Bft) O-NO 0,03 h 0,127 mm 1,3 UV-I 283 W/m 3,6 C 6,5 C 12,0 km/h (2 Bft) 97,79 %
11.04.2019 12:00 8,5 C 0,0 C 14,9 C 72 % 1015,5 hPa 0,0 l/m 6,1 km/h (2 Bft) O 0,23 h 0,153 mm 1,4 UV-I 323 W/m 3,8 C 8,0 C 10,0 km/h (2 Bft) 97,14 %
11.04.2019 13:00 8,3 C 0,0 C 11,8 C 72 % 1015,7 hPa 0,0 l/m 6,6 km/h (2 Bft) O-SO 0,00 h 0,152 mm 0,7 UV-I 147 W/m 3,5 C 7,5 C 10,7 km/h (2 Bft) 99,01 %
11.04.2019 14:00 8,2 C 0,0 C 10,7 C 72 % 1015,9 hPa 0,0 l/m 4,9 km/h (1 Bft) SO 0,00 h 0,076 mm 0,6 UV-I 126 W/m 3,4 C 8,1 C 8,3 km/h (2 Bft) 96,01 %
11.04.2019 15:00 8,2 C 0,0 C 10,2 C 71 % 1015,9 hPa 0,0 l/m 5,2 km/h (1 Bft) SO 0,00 h 0,077 mm 0,5 UV-I 105 W/m 3,4 C 8,2 C 7,8 km/h (2 Bft) 96,08 %
11.04.2019 16:00 8,2 C 0,0 C 9,7 C 71 % 1016,1 hPa 0,0 l/m 2,7 km/h (1 Bft) S-SO 0,00 h 0,050 mm 0,0 UV-I 82 W/m 3,3 C 8,2 C 5,2 km/h (1 Bft) 96,51 %
11.04.2019 17:00 8,0 C 0,0 C 9,0 C 74 % 1016,3 hPa 0,0 l/m 5,3 km/h (1 Bft) SO 0,00 h 0,051 mm 0,0 UV-I 72 W/m 3,7 C 7,8 C 8,6 km/h (2 Bft) 98,09 %
11.04.2019 18:00 7,7 C 0,0 C 8,2 C 74 % 1016,5 hPa 0,0 l/m 4,9 km/h (1 Bft) O-SO 0,00 h 0,051 mm 0,0 UV-I 44 W/m 3,4 C 7,3 C 8,1 km/h (2 Bft) 96,31 %
11.04.2019 19:00 7,0 C 0,0 C 6,6 C 74 % 1017,0 hPa 0,0 l/m 6,7 km/h (2 Bft) O-SO 0,03 h 0,025 mm 0,0 UV-I 14 W/m 2,7 C 6,1 C 10,4 km/h (2 Bft) 96,45 %
11.04.2019 20:00 6,5 C 0,0 C 6,1 C 76 % 1017,6 hPa 0,0 l/m 6,2 km/h (2 Bft) SO 0,00 h 0,026 mm 0,0 UV-I 0 W/m 2,5 C 5,9 C 9,8 km/h (2 Bft) 98,13 %
11.04.2019 21:00 6,1 C 0,0 C 5,7 C 80 % 1017,8 hPa 0,0 l/m 3,2 km/h (1 Bft) S-SO 0,00 h 0,025 mm 0,0 UV-I 0 W/m 2,8 C 6,1 C 5,6 km/h (1 Bft) 98,09 %
11.04.2019 22:00 5,7 C 0,0 C 5,2 C 83 % 1018,0 hPa 0,0 l/m 1,9 km/h (1 Bft) S 0,00 h 0,000 mm 0,0 UV-I 0 W/m 3,0 C 5,7 C 3,1 km/h (1 Bft) 95,25 %
11.04.2019 23:00 5,7 C 0,0 C 5,0 C 77 % 1018,2 hPa 0,0 l/m 6,2 km/h (2 Bft) NO 0,00 h 0,000 mm 0,0 UV-I 0 W/m 2,0 C 4,1 C 9,6 km/h (2 Bft) 97,17 %
12.04.2019 00:00 5,7 C 0,0 C 5,0 C 66 % 1018,3 hPa 0,0 l/m 10,8 km/h (2 Bft) NO 0,00 h 0,000 mm 0,0 UV-I 0 W/m -0,2 C 2,4 C 15,7 km/h (3 Bft) 97,53 %
12.04.2019 01:00 5,4 C 0,0 C 4,6 C 67 % 1018,4 hPa 0,0 l/m 8,5 km/h (2 Bft) NO 0,00 h 0,025 mm 0,0 UV-I 0 W/m -0,3 C 3,6 C 13,4 km/h (3 Bft) 98,27 %
12.04.2019 02:00 5,0 C 0,0 C 4,3 C 67 % 1018,5 hPa 0,0 l/m 10,1 km/h (2 Bft) NO 0,00 h 0,026 mm 0,0 UV-I 0 W/m -0,6 C 2,0 C 15,0 km/h (3 Bft) 95,27 %
12.04.2019 03:00 4,0 C 0,0 C 3,6 C 72 % 1018,6 hPa 0,0 l/m 11,6 km/h (2 Bft) NO 0,00 h 0,025 mm 0,0 UV-I 0 W/m -0,6 C -0,0 C 16,6 km/h (3 Bft) 98,15 %
12.04.2019 04:00 3,5 C 0,0 C 3,2 C 75 % 1018,6 hPa 0,0 l/m 12,6 km/h (3 Bft) NO 0,00 h 0,026 mm 0,0 UV-I 0 W/m -0,6 C -1,4 C 17,1 km/h (3 Bft) 97,61 %
12.04.2019 05:00 3,1 C 0,0 C 2,7 C 74 % 1018,5 hPa 0,0 l/m 12,5 km/h (3 Bft) NO 0,00 h 0,025 mm 0,0 UV-I 0 W/m -1,2 C -1,8 C 17,9 km/h (3 Bft) 97,04 %
12.04.2019 06:00 2,6 C 0,0 C 2,1 C 73 % 1018,7 hPa 0,0 l/m 10,0 km/h (2 Bft) O-NO 0,33 h 0,025 mm 0,0 UV-I 23 W/m -1,8 C -0,5 C 15,6 km/h (3 Bft) 95,53 %
12.04.2019 07:00 2,9 C 0,0 C 4,0 C 74 % 1019,1 hPa 0,0 l/m 9,4 km/h (2 Bft) NO 0,17 h 0,026 mm 0,0 UV-I 89 W/m -1,2 C 0,3 C 14,5 km/h (3 Bft) 97,78 %
12.04.2019 08:00 3,7 C 0,0 C 6,5 C 70 % 1019,1 hPa 0,0 l/m 11,4 km/h (2 Bft) NO 0,70 h 0,051 mm 0,5 UV-I 202 W/m -1,1 C -0,2 C 17,1 km/h (3 Bft) 97,73 %
12.04.2019 09:00 4,6 C 0,0 C 10,2 C 68 % 1019,0 hPa 0,0 l/m 10,4 km/h (2 Bft) O-NO 1,02 h 0,101 mm 0,9 UV-I 329 W/m -0,8 C 1,4 C 15,6 km/h (3 Bft) 98,53 %
12.04.2019 10:00 5,7 C 0,0 C 15,6 C 64 % 1018,9 hPa 0,0 l/m 10,9 km/h (2 Bft) NO 1,00 h 0,153 mm 1,7 UV-I 520 W/m -0,5 C 2,4 C 16,3 km/h (3 Bft) 95,46 %
12.04.2019 11:00 7,2 C 0,0 C 20,5 C 62 % 1018,7 hPa 0,0 l/m 11,8 km/h (2 Bft) NO 0,98 h 0,254 mm 2,6 UV-I 716 W/m 0,5 C 3,6 C 18,1 km/h (3 Bft) 95,26 %
12.04.2019 12:00 8,3 C 0,0 C 23,3 C 60 % 1018,4 hPa 0,0 l/m 10,9 km/h (2 Bft) O-NO 0,93 h 0,330 mm 2,9 UV-I 796 W/m 0,9 C 5,3 C 17,4 km/h (3 Bft) 95,92 %
12.04.2019 13:00 9,0 C 0,0 C 23,7 C 55 % 1018,1 hPa 0,0 l/m 11,3 km/h (2 Bft) O-NO 0,93 h 0,381 mm 2,9 UV-I 801 W/m 0,4 C 5,9 C 17,6 km/h (3 Bft) 94,76 %
12.04.2019 14:00 9,3 C 0,0 C 19,5 C 54 % 1018,0 hPa 0,0 l/m 11,4 km/h (2 Bft) O-NO 0,63 h 0,406 mm 2,1 UV-I 559 W/m 0,5 C 6,0 C 17,1 km/h (3 Bft) 96,72 %
12.04.2019 15:00 8,8 C 0,0 C 14,4 C 53 % 1017,7 hPa 0,0 l/m 9,5 km/h (2 Bft) NO 0,43 h 0,305 mm 1,3 UV-I 335 W/m -0,4 C 6,7 C 14,8 km/h (3 Bft) 96,22 %
12.04.2019 16:00 8,7 C 0,0 C 12,6 C 52 % 1017,6 hPa 0,0 l/m 7,7 km/h (2 Bft) NO 0,00 h 0,203 mm 0,7 UV-I 228 W/m -0,6 C 7,5 C 11,6 km/h (2 Bft) 96,82 %
12.04.2019 17:00 8,6 C 0,0 C 12,0 C 51 % 1017,6 hPa 0,0 l/m 6,8 km/h (2 Bft) NO 0,07 h 0,153 mm 0,5 UV-I 181 W/m -0,9 C 7,8 C 10,6 km/h (2 Bft) 98,26 %
12.04.2019 18:00 7,9 C 0,0 C 8,5 C 55 % 1017,7 hPa 0,0 l/m 8,6 km/h (2 Bft) NO 0,03 h 0,127 mm 0,0 UV-I 97 W/m -0,6 C 6,2 C 12,3 km/h (3 Bft) 97,58 %
12.04.2019 19:00 6,6 C 0,0 C 5,5 C 59 % 1018,1 hPa 0,0 l/m 9,5 km/h (2 Bft) NO 0,40 h 0,076 mm 0,0 UV-I 28 W/m -0,8 C 4,2 C 13,9 km/h (3 Bft) 95,85 %
12.04.2019 20:00 5,7 C 0,0 C 4,8 C 62 % 1018,7 hPa 0,0 l/m 10,2 km/h (2 Bft) NO 0,00 h 0,051 mm 0,0 UV-I 5 W/m -1,1 C 2,8 C 14,9 km/h (3 Bft) 96,32 %
12.04.2019 21:00 5,0 C 0,0 C 3,4 C 63 % 1019,1 hPa 0,0 l/m 8,7 km/h (2 Bft) NO 0,00 h 0,050 mm 0,0 UV-I 0 W/m -1,5 C 3,0 C 13,1 km/h (3 Bft) 98,57 %
12.04.2019 22:00 4,1 C 0,0 C 1,7 C 68 % 1019,2 hPa 0,0 l/m 4,4 km/h (1 Bft) O-SO 0,00 h 0,026 mm 0,0 UV-I 0 W/m -1,2 C 4,1 C 6,7 km/h (2 Bft) 97,02 %
12.04.2019 23:00 4,1 C 0,0 C 3,2 C 70 % 1019,4 hPa 0,0 l/m 4,5 km/h (1 Bft) O 0,00 h 0,025 mm 0,0 UV-I 0 W/m -0,8 C 3,9 C 7,9 km/h (2 Bft) 96,01 %
13.04.2019 00:00 4,1 C 0,0 C 3,5 C 71 % 1019,4 hPa 0,0 l/m 6,8 km/h (2 Bft) NO 0,00 h 0,000 mm 0,0 UV-I 0 W/m -0,7 C 3,2 C 10,2 km/h (2 Bft) 97,47 %
13.04.2019 01:00 4,1 C 0,0 C 3,7 C 70 % 1019,1 hPa 0,0 l/m 7,2 km/h (2 Bft) O-NO 0,00 h 0,025 mm 0,0 UV-I 0 W/m -0,9 C 2,9 C 10,6 km/h (2 Bft) 97,45 %
13.04.2019 02:00 3,8 C 0,0 C 3,3 C 71 % 1019,0 hPa 0,0 l/m 6,4 km/h (2 Bft) NO 0,00 h 0,026 mm 0,0 UV-I 0 W/m -1,0 C 3,5 C 8,8 km/h (2 Bft) 96,48 %
13.04.2019 03:00 3,8 C 0,0 C 3,3 C 70 % 1018,8 hPa 0,0 l/m 6,3 km/h (2 Bft) O-NO 0,00 h 0,025 mm 0,0 UV-I 0 W/m -1,2 C 3,5 C 9,7 km/h (2 Bft) 96,47 %
13.04.2019 04:00 3,6 C 0,0 C 3,2 C 71 % 1018,6 hPa 0,0 l/m 7,2 km/h (2 Bft) NO 0,00 h 0,026 mm 0,0 UV-I 0 W/m -1,2 C 2,7 C 10,9 km/h (2 Bft) 97,70 %
13.04.2019 05:00 3,3 C 0,0 C 2,8 C 73 % 1018,4 hPa 0,0 l/m 6,0 km/h (2 Bft) NO 0,00 h 0,025 mm 0,0 UV-I 0 W/m -1,1 C 3,2 C 8,7 km/h (2 Bft) 97,25 %
13.04.2019 06:00 3,3 C 0,0 C 2,8 C 72 % 1018,2 hPa 0,0 l/m 7,2 km/h (2 Bft) O-NO 0,00 h 0,025 mm 0,0 UV-I 10 W/m -1,3 C 2,3 C 11,4 km/h (2 Bft) 95,66 %
13.04.2019 07:00 3,3 C 0,0 C 3,6 C 73 % 1018,3 hPa 0,0 l/m 6,6 km/h (2 Bft) O-NO 0,00 h 0,026 mm 0,0 UV-I 38 W/m -1,1 C 2,8 C 10,3 km/h (2 Bft) 97,50 %
13.04.2019 08:00 3,7 C 0,0 C 5,5 C 73 % 1018,5 hPa 0,0 l/m 8,9 km/h (2 Bft) O-NO 0,00 h 0,025 mm 0,0 UV-I 110 W/m -0,7 C 1,6 C 13,5 km/h (3 Bft) 97,96 %
13.04.2019 09:00 4,6 C 0,0 C 8,7 C 71 % 1018,5 hPa 0,0 l/m 12,1 km/h (2 Bft) O-NO 0,07 h 0,076 mm 0,7 UV-I 237 W/m -0,1 C 0,3 C 17,0 km/h (3 Bft) 97,05 %
13.04.2019 10:00 6,2 C 0,0 C 13,0 C 66 % 1018,5 hPa 0,0 l/m 12,3 km/h (3 Bft) O 1,00 h 0,127 mm 1,2 UV-I 369 W/m 0,3 C 2,1 C 17,5 km/h (3 Bft) 96,40 %
13.04.2019 11:00 8,3 C 0,0 C 18,0 C 57 % 1018,2 hPa 0,0 l/m 12,4 km/h (3 Bft) O-NO 1,00 h 0,204 mm 2,0 UV-I 569 W/m 0,2 C 4,4 C 18,2 km/h (3 Bft) 95,56 %
13.04.2019 12:00 9,4 C 0,0 C 22,5 C 50 % 1017,7 hPa 0,0 l/m 13,0 km/h (3 Bft) O 1,00 h 0,304 mm 2,7 UV-I 707 W/m -0,5 C 5,4 C 19,8 km/h (4 Bft) 96,01 %
13.04.2019 13:00 10,4 C 0,0 C 25,8 C 47 % 1017,2 hPa 0,0 l/m 11,1 km/h (2 Bft) O 1,00 h 0,381 mm 2,9 UV-I 763 W/m -0,6 C 7,5 C 17,0 km/h (3 Bft) 98,25 %
13.04.2019 14:00 10,9 C 0,0 C 24,8 C 44 % 1016,8 hPa 0,0 l/m 10,0 km/h (2 Bft) O 0,73 h 0,407 mm 2,3 UV-I 672 W/m -1,0 C 8,7 C 15,8 km/h (3 Bft) 96,93 %
13.04.2019 15:00 10,8 C 0,0 C 21,0 C 44 % 1016,5 hPa 0,0 l/m 6,7 km/h (2 Bft) O-NO 0,67 h 0,381 mm 1,6 UV-I 503 W/m -1,1 C 10,1 C 11,3 km/h (2 Bft) 98,74 %
13.04.2019 16:00 10,5 C 0,0 C 15,1 C 45 % 1016,0 hPa 0,0 l/m 12,8 km/h (3 Bft) NO 0,10 h 0,279 mm 0,8 UV-I 263 W/m -0,9 C 6,7 C 19,0 km/h (3 Bft) 97,65 %
13.04.2019 17:00 9,7 C 0,0 C 11,6 C 47 % 1016,2 hPa 0,0 l/m 14,0 km/h (3 Bft) O-NO 0,13 h 0,203 mm 0,5 UV-I 164 W/m -1,0 C 5,4 C 19,9 km/h (4 Bft) 96,96 %
13.04.2019 18:00 9,5 C 0,0 C 10,9 C 48 % 1016,3 hPa 0,0 l/m 12,1 km/h (2 Bft) O-NO 0,43 h 0,153 mm 0,0 UV-I 119 W/m -0,9 C 5,9 C 17,6 km/h (3 Bft) 98,33 %
13.04.2019 19:00 8,7 C 0,0 C 8,4 C 52 % 1016,5 hPa 0,0 l/m 12,2 km/h (2 Bft) O 0,63 h 0,127 mm 0,0 UV-I 43 W/m -0,5 C 5,0 C 17,6 km/h (3 Bft) 95,82 %
13.04.2019 20:00 7,8 C 0,0 C 5,9 C 56 % 1016,9 hPa 0,0 l/m 7,2 km/h (2 Bft) O-SO 0,00 h 0,076 mm 0,0 UV-I 5 W/m -0,5 C 6,8 C 11,8 km/h (2 Bft) 97,07 %
13.04.2019 21:00 7,3 C 0,0 C 5,8 C 57 % 1016,9 hPa 0,0 l/m 6,4 km/h (2 Bft) O 0,00 h 0,025 mm 0,0 UV-I 0 W/m -0,5 C 6,8 C 10,7 km/h (2 Bft) 96,25 %
13.04.2019 22:00 6,8 C 0,0 C 4,9 C 61 % 1016,7 hPa 0,0 l/m 5,6 km/h (1 Bft) O-SO 0,00 h 0,026 mm 0,0 UV-I 0 W/m -0,3 C 6,6 C 9,3 km/h (2 Bft) 98,10 %
13.04.2019 23:00 6,2 C 0,0 C 5,2 C 67 % 1016,8 hPa 0,0 l/m 12,2 km/h (2 Bft) O 0,00 h 0,025 mm 0,0 UV-I 0 W/m 0,5 C 2,3 C 17,5 km/h (3 Bft) 95,60 %
14.04.2019 00:00 5,6 C 0,0 C 5,1 C 74 % 1016,9 hPa 0,0 l/m 20,4 km/h (4 Bft) O-NO 0,00 h 0,000 mm 0,0 UV-I 0 W/m 1,3 C -2,4 C 27,5 km/h (4 Bft) 94,28 %
14.04.2019 01:00 5,1 C 0,0 C 4,7 C 77 % 1016,8 hPa 0,0 l/m 16,2 km/h (3 Bft) O-NO 0,00 h 0,051 mm 0,0 UV-I 0 W/m 1,5 C -1,2 C 22,4 km/h (4 Bft) 96,93 %
14.04.2019 02:00 4,6 C 0,0 C 4,1 C 80 % 1016,6 hPa 0,0 l/m 17,4 km/h (3 Bft) O 0,00 h 0,025 mm 0,0 UV-I 0 W/m 1,4 C -2,6 C 24,1 km/h (4 Bft) 98,36 %
14.04.2019 03:00 4,2 C 0,0 C 3,7 C 83 % 1016,6 hPa 0,0 l/m 16,3 km/h (3 Bft) O 0,00 h 0,026 mm 0,0 UV-I 0 W/m 1,5 C -2,6 C 23,4 km/h (4 Bft) 96,09 %
14.04.2019 04:00 3,8 C 0,0 C 3,3 C 85 % 1016,7 hPa 0,0 l/m 8,5 km/h (2 Bft) O 0,00 h 0,025 mm 0,0 UV-I 0 W/m 1,5 C 1,9 C 12,9 km/h (3 Bft) 97,60 %
14.04.2019 05:00 3,6 C 0,0 C 2,9 C 88 % 1016,5 hPa 0,0 l/m 5,9 km/h (2 Bft) O 0,00 h 0,025 mm 0,0 UV-I 0 W/m 1,8 C 3,4 C 9,1 km/h (2 Bft) 97,22 %
14.04.2019 06:00 3,3 C 0,0 C 3,0 C 89 % 1016,5 hPa 0,0 l/m 4,2 km/h (1 Bft) O-NO 0,13 h 0,000 mm 0,0 UV-I 21 W/m 1,6 C 3,3 C 6,2 km/h (2 Bft) 98,04 %
14.04.2019 07:00 3,6 C 0,0 C 4,2 C 89 % 1016,6 hPa 0,0 l/m 6,0 km/h (2 Bft) NO 0,00 h 0,000 mm 0,0 UV-I 75 W/m 1,9 C 3,1 C 8,5 km/h (2 Bft) 96,07 %
14.04.2019 08:00 4,3 C 0,0 C 6,9 C 85 % 1016,8 hPa 0,0 l/m 9,9 km/h (2 Bft) O-NO 0,30 h 0,026 mm 0,5 UV-I 193 W/m 2,0 C 1,5 C 14,6 km/h (3 Bft) 97,00 %
14.04.2019 09:00 5,3 C 0,0 C 8,1 C 79 % 1017,0 hPa 0,0 l/m 10,6 km/h (2 Bft) NO 0,10 h 0,101 mm 0,5 UV-I 161 W/m 2,0 C 2,2 C 15,8 km/h (3 Bft) 97,28 %
14.04.2019 10:00 6,3 C 0,0 C 11,3 C 73 % 1017,2 hPa 0,0 l/m 13,0 km/h (3 Bft) NO 0,30 h 0,077 mm 1,0 UV-I 324 W/m 1,8 C 1,7 C 18,0 km/h (3 Bft) 98,31 %
14.04.2019 11:00 6,8 C 0,0 C 13,0 C 70 % 1017,0 hPa 0,0 l/m 11,4 km/h (2 Bft) NO 0,23 h 0,177 mm 1,2 UV-I 348 W/m 1,7 C 3,3 C 16,4 km/h (3 Bft) 97,40 %
14.04.2019 12:00 7,3 C 0,0 C 13,0 C 70 % 1017,0 hPa 0,0 l/m 12,7 km/h (3 Bft) O-NO 0,07 h 0,178 mm 1,2 UV-I 332 W/m 2,2 C 3,1 C 18,7 km/h (3 Bft) 98,42 %
14.04.2019 13:00 8,1 C 0,0 C 17,0 C 67 % 1017,0 hPa 0,0 l/m 12,5 km/h (3 Bft) O-NO 0,43 h 0,178 mm 1,7 UV-I 457 W/m 2,4 C 4,2 C 19,4 km/h (3 Bft) 95,49 %
14.04.2019 14:00 8,9 C 0,0 C 19,6 C 66 % 1017,2 hPa 0,0 l/m 14,4 km/h (3 Bft) O-NO 0,97 h 0,254 mm 1,8 UV-I 553 W/m 2,8 C 4,1 C 20,6 km/h (4 Bft) 95,44 %
14.04.2019 15:00 8,6 C 0,0 C 13,7 C 68 % 1017,2 hPa 0,0 l/m 15,1 km/h (3 Bft) NO 0,47 h 0,305 mm 1,1 UV-I 327 W/m 3,1 C 3,4 C 21,8 km/h (4 Bft) 98,06 %
14.04.2019 16:00 8,2 C 0,0 C 11,4 C 71 % 1017,4 hPa 0,0 l/m 12,2 km/h (2 Bft) O-NO 0,00 h 0,203 mm 0,6 UV-I 189 W/m 3,2 C 4,5 C 18,4 km/h (3 Bft) 97,54 %
14.04.2019 17:00 7,8 C 0,0 C 8,7 C 75 % 1017,7 hPa 0,0 l/m 12,9 km/h (3 Bft) NO 0,00 h 0,127 mm 0,0 UV-I 80 W/m 3,7 C 3,6 C 18,0 km/h (3 Bft) 98,31 %
14.04.2019 18:00 6,7 C 0,0 C 6,3 C 85 % 1018,3 hPa 0,8 l/m 8,4 km/h (2 Bft) NO 0,00 h 0,076 mm 0,0 UV-I 25 W/m 4,2 C 5,0 C 12,1 km/h (2 Bft) 95,83 %
14.04.2019 19:00 5,9 C 0,0 C 5,7 C 91 % 1018,9 hPa 0,4 l/m 4,7 km/h (1 Bft) NO 0,00 h 0,026 mm 0,0 UV-I 8 W/m 4,5 C 5,9 C 6,9 km/h (2 Bft) 97,44 %
14.04.2019 20:00 5,4 C 0,0 C 5,6 C 93 % 1019,6 hPa 0,4 l/m 3,2 km/h (1 Bft) NO 0,00 h 0,000 mm 0,0 UV-I 0 W/m 4,4 C 5,4 C 4,7 km/h (1 Bft) 97,41 %
14.04.2019 21:00 5,4 C 0,0 C 5,6 C 94 % 1020,3 hPa 0,2 l/m 1,2 km/h (1 Bft) NO 0,00 h 0,000 mm 0,0 UV-I 0 W/m 4,5 C 5,4 C 2,2 km/h (1 Bft) 98,01 %
14.04.2019 22:00 5,5 C 0,0 C 5,6 C 94 % 1020,6 hPa 0,0 l/m 2,3 km/h (1 Bft) SW 0,00 h 0,000 mm 0,0 UV-I 0 W/m 4,6 C 5,5 C 3,7 km/h (1 Bft) 95,32 %
14.04.2019 23:00 5,6 C 0,0 C 5,6 C 95 % 1021,0 hPa 0,0 l/m 2,3 km/h (1 Bft) SW 0,00 h 0,000 mm 0,0 UV-I 0 W/m 4,9 C 5,6 C 3,9 km/h (1 Bft) 97,53 %
Min-Datum _ 12.04.19 08.04.19 12.04.19 13.04.19 08.04.19 - 11.04.19 - - - - - 13.04.19 14.04.19 11.04.19 14.04.19
_ Min-Zeit 06:36 20:40 21:58 16:04 00:00 - 23:12 - - - - - 16:04 00:30 23:12 00:02
Minimum _ 2,4 C 0,0 C 0,6 C 38 % 1004,3 hPa - 0,0 km/h (0 Bft) - - - - - -2,5 C -4,3 C 0,0 km/h (0 Bft) 10,53 %
Max-Datum _ 09.04.19 08.04.19 09.04.19 10.04.19 14.04.19 14.04.19 14.04.19 - 09.04.19 13.04.19 12.04.19 12.04.19 09.04.19 09.04.19 14.04.19 08.04.19
_ Max-Zeit 16:04 00:00 13:18 22:28 23:59 18:34 00:30 - 15:59 14:02 12:42 13:58 12:22 16:04 00:12 00:06
Maximum _ 18,0 C 10,6 C 31,1 C 96 % 1021,2 hPa 0,8 l/m 25,7 km/h
O-NO (4 Bft)
- 0,05 h 0,407 mm 3,2 UV-I 951 W/m 10,3 C 17,9 C 35,4 km/h
O-NO (5 Bft)
100,00 %
Durchschnitt _ 8,1 C 1,3 C 9,9 C 75 % 1013,1 hPa #3,2 l/m 8,7 km/h (2 Bft) O-NO #30:15 h #14,630 mm 1,3 UV-I 235 W/m 3,7 C 6,1 C 13,1 km/h (3 Bft) 97,17 %